sensor_id;sensor_type;location;lat;lon;timestamp;pressure;altitude;pressure_sealevel;temperature;humidity
49827;BME280;35715;51.570;6.036;2023-02-03T00:01:33;102347.66;;;9.02;100.00
49827;BME280;35715;51.570;6.036;2023-02-03T00:04:03;102354.03;;;9.05;100.00
49827;BME280;35715;51.570;6.036;2023-02-03T00:06:29;102350.22;;;9.02;100.00
49827;BME280;35715;51.570;6.036;2023-02-03T00:08:54;102342.19;;;8.99;100.00
49827;BME280;35715;51.570;6.036;2023-02-03T00:11:20;102339.78;;;9.00;100.00
49827;BME280;35715;51.570;6.036;2023-02-03T00:16:14;102345.84;;;9.01;100.00
49827;BME280;35715;51.570;6.036;2023-02-03T00:18:39;102329.47;;;9.00;100.00
49827;BME280;35715;51.570;6.036;2023-02-03T00:21:05;102321.91;;;9.02;100.00
49827;BME280;35715;51.570;6.036;2023-02-03T00:23:35;102332.34;;;9.03;100.00
49827;BME280;35715;51.570;6.036;2023-02-03T00:26:10;102329.94;;;9.05;100.00
49827;BME280;35715;51.570;6.036;2023-02-03T00:28:36;102337.66;;;9.05;100.00
49827;BME280;35715;51.570;6.036;2023-02-03T00:31:01;102339.31;;;9.04;100.00
49827;BME280;35715;51.570;6.036;2023-02-03T00:33:26;102347.78;;;9.03;100.00
49827;BME280;35715;51.570;6.036;2023-02-03T00:35:52;102350.38;;;9.03;100.00
49827;BME280;35715;51.570;6.036;2023-02-03T00:38:17;102345.53;;;9.06;100.00
49827;BME280;35715;51.570;6.036;2023-02-03T00:40:42;102347.66;;;9.02;100.00
49827;BME280;35715;51.570;6.036;2023-02-03T00:43:15;102348.72;;;9.04;100.00
49827;BME280;35715;51.570;6.036;2023-02-03T00:45:43;102346.16;;;9.04;100.00
49827;BME280;35715;51.570;6.036;2023-02-03T00:48:09;102359.91;;;9.04;100.00
49827;BME280;35715;51.570;6.036;2023-02-03T00:50:34;102364.03;;;9.02;100.00
49827;BME280;35715;51.570;6.036;2023-02-03T00:52:59;102369.47;;;9.05;100.00
49827;BME280;35715;51.570;6.036;2023-02-03T00:55:34;102374.94;;;9.09;100.00
49827;BME280;35715;51.570;6.036;2023-02-03T00:58:00;102370.38;;;9.06;100.00
49827;BME280;35715;51.570;6.036;2023-02-03T01:00:25;102375.06;;;9.10;100.00
49827;BME280;35715;51.570;6.036;2023-02-03T01:02:50;102380.66;;;9.06;100.00
49827;BME280;35715;51.570;6.036;2023-02-03T01:05:26;102384.75;;;9.13;99.93
49827;BME280;35715;51.570;6.036;2023-02-03T01:07:52;102383.25;;;9.15;99.82
49827;BME280;35715;51.570;6.036;2023-02-03T01:10:17;102383.25;;;9.15;99.65
49827;BME280;35715;51.570;6.036;2023-02-03T01:12:42;102389.16;;;9.14;99.63
49827;BME280;35715;51.570;6.036;2023-02-03T01:17:41;102387.31;;;9.13;99.75
49827;BME280;35715;51.570;6.036;2023-02-03T01:20:06;102385.81;;;9.15;99.75
49827;BME280;35715;51.570;6.036;2023-02-03T01:22:31;102390.03;;;9.14;99.66
49827;BME280;35715;51.570;6.036;2023-02-03T01:25:02;102388.53;;;9.16;99.62
49827;BME280;35715;51.570;6.036;2023-02-03T01:27:27;102391.41;;;9.11;99.79
49827;BME280;35715;51.570;6.036;2023-02-03T01:29:53;102386.72;;;9.15;99.54
49827;BME280;35715;51.570;6.036;2023-02-03T01:32:18;102390.19;;;9.16;99.51
49827;BME280;35715;51.570;6.036;2023-02-03T01:37:23;102372.94;;;9.15;99.39
49827;BME280;35715;51.570;6.036;2023-02-03T01:39:48;102375.97;;;9.11;99.49
49827;BME280;35715;51.570;6.036;2023-02-03T01:42:13;102379.44;;;9.11;99.38
49827;BME280;35715;51.570;6.036;2023-02-03T01:44:49;102373.25;;;9.18;99.21
49827;BME280;35715;51.570;6.036;2023-02-03T01:52:38;102384.28;;;9.17;98.68
49827;BME280;35715;51.570;6.036;2023-02-03T01:55:06;102382.31;;;9.14;98.53
49827;BME280;35715;51.570;6.036;2023-02-03T01:57:33;102374.44;;;9.13;98.16
49827;BME280;35715;51.570;6.036;2023-02-03T02:00:00;102360.97;;;9.15;97.86
49827;BME280;35715;51.570;6.036;2023-02-03T02:02:29;102357.66;;;9.16;97.70
49827;BME280;35715;51.570;6.036;2023-02-03T02:04:57;102349.78;;;9.15;97.96
49827;BME280;35715;51.570;6.036;2023-02-03T02:07:25;102346.13;;;9.13;97.58
49827;BME280;35715;51.570;6.036;2023-02-03T02:09:51;102344.63;;;9.15;97.51
49827;BME280;35715;51.570;6.036;2023-02-03T02:12:17;102341.13;;;9.14;97.67
49827;BME280;35715;51.570;6.036;2023-02-03T02:14:42;102329.63;;;9.19;97.38
49827;BME280;35715;51.570;6.036;2023-02-03T02:17:25;102330.06;;;9.15;97.01
49827;BME280;35715;51.570;6.036;2023-02-03T02:33:00;102321.44;;;9.15;96.55
49827;BME280;35715;51.570;6.036;2023-02-03T02:35:31;102323.25;;;9.16;96.72
49827;BME280;35715;51.570;6.036;2023-02-03T02:40:31;102327.63;;;9.17;96.58
49827;BME280;35715;51.570;6.036;2023-02-03T02:48:17;102324.31;;;9.18;95.74
49827;BME280;35715;51.570;6.036;2023-02-03T02:50:45;102312.78;;;9.14;95.80
49827;BME280;35715;51.570;6.036;2023-02-03T02:53:13;102316.28;;;9.15;95.70
49827;BME280;35715;51.570;6.036;2023-02-03T02:55:39;102309.91;;;9.11;95.83
49827;BME280;35715;51.570;6.036;2023-02-03T02:58:05;102316.28;;;9.15;95.52
49827;BME280;35715;51.570;6.036;2023-02-03T03:00:33;102316.44;;;9.16;95.61
49827;BME280;35715;51.570;6.036;2023-02-03T03:03:20;102337.66;;;9.14;95.16
49827;BME280;35715;51.570;6.036;2023-02-03T03:05:48;102342.03;;;9.15;95.12
49827;BME280;35715;51.570;6.036;2023-02-03T03:08:15;102332.34;;;9.12;94.54
49827;BME280;35715;51.570;6.036;2023-02-03T03:10:42;102327.34;;;9.14;94.48
49827;BME280;35715;51.570;6.036;2023-02-03T03:13:09;102332.78;;;9.17;94.37
49827;BME280;35715;51.570;6.036;2023-02-03T03:15:36;102329.78;;;9.12;93.30
49827;BME280;35715;51.570;6.036;2023-02-03T03:18:37;102327.63;;;9.17;93.32
49827;BME280;35715;51.570;6.036;2023-02-03T03:20:54;102330.38;;;9.18;93.08
49827;BME280;35715;51.570;6.036;2023-02-03T03:23:26;102317.34;;;9.17;93.01
49827;BME280;35715;51.570;6.036;2023-02-03T03:26:54;102301.13;;;9.18;92.57
49827;BME280;35715;51.570;6.036;2023-02-03T03:28:53;102297.34;;;9.14;92.11
49827;BME280;35715;51.570;6.036;2023-02-03T03:31:21;102313.22;;;9.19;92.25
49827;BME280;35715;51.570;6.036;2023-02-03T03:33:54;102312.94;;;9.16;91.84
49827;BME280;35715;51.570;6.036;2023-02-03T03:38:49;102306.75;;;9.14;91.46
49827;BME280;35715;51.570;6.036;2023-02-03T03:44:02;102301.00;;;9.16;91.07
49827;BME280;35715;51.570;6.036;2023-02-03T03:46:31;102302.63;;;9.16;91.14
49827;BME280;35715;51.570;6.036;2023-02-03T03:49:03;102303.56;;;9.16;91.31
49827;BME280;35715;51.570;6.036;2023-02-03T03:51:30;102310.22;;;9.14;91.29
49827;BME280;35715;51.570;6.036;2023-02-03T03:53:59;102323.69;;;9.20;91.42
49827;BME280;35715;51.570;6.036;2023-02-03T03:56:27;102309.75;;;9.18;91.29
49827;BME280;35715;51.570;6.036;2023-02-03T03:58:54;102313.22;;;9.19;91.07
49827;BME280;35715;51.570;6.036;2023-02-03T04:01:20;102309.16;;;9.21;90.90
49827;BME280;35715;51.570;6.036;2023-02-03T04:06:24;102323.09;;;9.23;90.62
49827;BME280;35715;51.570;6.036;2023-02-03T04:08:49;102311.75;;;9.21;90.50
49827;BME280;35715;51.570;6.036;2023-02-03T04:11:15;102308.84;;;9.27;90.42
49827;BME280;35715;51.570;6.036;2023-02-03T04:14:01;102312.19;;;9.26;90.21
49827;BME280;35715;51.570;6.036;2023-02-03T04:16:27;102333.69;;;9.26;90.26
49827;BME280;35715;51.570;6.036;2023-02-03T04:18:52;102328.53;;;9.26;89.85
49827;BME280;35715;51.570;6.036;2023-02-03T04:21:17;102333.22;;;9.30;90.22
49827;BME280;35715;51.570;6.036;2023-02-03T04:23:43;102338.53;;;9.32;89.99
49827;BME280;35715;51.570;6.036;2023-02-03T04:26:09;102335.81;;;9.30;89.77
49827;BME280;35715;51.570;6.036;2023-02-03T04:28:34;102332.34;;;9.30;89.24
49827;BME280;35715;51.570;6.036;2023-02-03T04:30:59;102327.31;;;9.31;89.38
49827;BME280;35715;51.570;6.036;2023-02-03T04:35:55;102326.84;;;9.35;89.32
49827;BME280;35715;51.570;6.036;2023-02-03T04:38:20;102335.34;;;9.34;89.20
49827;BME280;35715;51.570;6.036;2023-02-03T04:40:45;102324.13;;;9.34;89.15
49827;BME280;35715;51.570;6.036;2023-02-03T04:43:11;102312.03;;;9.33;89.06
49827;BME280;35715;51.570;6.036;2023-02-03T04:45:40;102312.78;;;9.32;89.12
49827;BME280;35715;51.570;6.036;2023-02-03T04:48:05;102332.00;;;9.35;89.09
49827;BME280;35715;51.570;6.036;2023-02-03T04:50:30;102327.47;;;9.33;88.52
49827;BME280;35715;51.570;6.036;2023-02-03T04:52:56;102313.97;;;9.35;88.77
49827;BME280;35715;51.570;6.036;2023-02-03T04:55:24;102298.22;;;9.32;88.31
49827;BME280;35715;51.570;6.036;2023-02-03T04:57:53;102295.19;;;9.36;88.21
49827;BME280;35715;51.570;6.036;2023-02-03T05:00:19;102289.72;;;9.33;88.14
49827;BME280;35715;51.570;6.036;2023-02-03T05:02:44;102288.19;;;9.35;88.17
49827;BME280;35715;51.570;6.036;2023-02-03T05:05:12;102285.03;;;9.38;88.42
49827;BME280;35715;51.570;6.036;2023-02-03T05:07:37;102287.59;;;9.38;87.98
49827;BME280;35715;51.570;6.036;2023-02-03T05:10:02;102290.91;;;9.37;88.45
49827;BME280;35715;51.570;6.036;2023-02-03T05:12:27;102287.00;;;9.40;88.34
49827;BME280;35715;51.570;6.036;2023-02-03T05:15:04;102290.91;;;9.37;87.92
49827;BME280;35715;51.570;6.036;2023-02-03T05:17:29;102280.75;;;9.38;87.67
49827;BME280;35715;51.570;6.036;2023-02-03T05:19:54;102290.03;;;9.36;87.99
49827;BME280;35715;51.570;6.036;2023-02-03T05:22:20;102295.47;;;9.39;87.93
49827;BME280;35715;51.570;6.036;2023-02-03T05:24:45;102296.22;;;9.38;87.94
49827;BME280;35715;51.570;6.036;2023-02-03T05:27:10;102301.06;;;9.44;88.19
49827;BME280;35715;51.570;6.036;2023-02-03T05:29:35;102303.50;;;9.43;87.90
49827;BME280;35715;51.570;6.036;2023-02-03T05:32:01;102305.16;;;9.42;88.10
49827;BME280;35715;51.570;6.036;2023-02-03T05:34:28;102306.97;;;9.43;87.97
49827;BME280;35715;51.570;6.036;2023-02-03T05:36:53;102317.13;;;9.41;87.78
49827;BME280;35715;51.570;6.036;2023-02-03T05:39:18;102314.69;;;9.43;87.83
49827;BME280;35715;51.570;6.036;2023-02-03T05:41:43;102317.41;;;9.45;87.87
49827;BME280;35715;51.570;6.036;2023-02-03T05:44:22;102311.81;;;9.49;87.95
49827;BME280;35715;51.570;6.036;2023-02-03T05:46:47;102313.47;;;9.48;88.01
49827;BME280;35715;51.570;6.036;2023-02-03T05:49:13;102321.81;;;9.46;87.69
49827;BME280;35715;51.570;6.036;2023-02-03T05:51:38;102324.97;;;9.52;87.92
49827;BME280;35715;51.570;6.036;2023-02-03T05:54:14;102303.19;;;9.48;87.91
49827;BME280;35715;51.570;6.036;2023-02-03T05:56:39;102312.56;;;9.48;87.68
49827;BME280;35715;51.570;6.036;2023-02-03T05:59:04;102299.53;;;9.46;87.54
49827;BME280;35715;51.570;6.036;2023-02-03T06:01:29;102311.06;;;9.50;87.98
49827;BME280;35715;51.570;6.036;2023-02-03T06:03:55;102304.81;;;9.48;87.47
49827;BME280;35715;51.570;6.036;2023-02-03T06:06:20;102322.09;;;9.49;87.67
49827;BME280;35715;51.570;6.036;2023-02-03T06:08:45;102316.22;;;9.50;87.64
49827;BME280;35715;51.570;6.036;2023-02-03T06:11:11;102316.22;;;9.50;87.93
49827;BME280;35715;51.570;6.036;2023-02-03T06:13:36;102313.63;;;9.50;87.58
49827;BME280;35715;51.570;6.036;2023-02-03T06:16:03;102318.03;;;9.51;87.61
49827;BME280;35715;51.570;6.036;2023-02-03T06:18:29;102313.47;;;9.48;87.36
49827;BME280;35715;51.570;6.036;2023-02-03T06:20:54;102321.22;;;9.48;87.18
49827;BME280;35715;51.570;6.036;2023-02-03T06:23:19;102323.03;;;9.49;87.56
49827;BME280;35715;51.570;6.036;2023-02-03T06:25:48;102315.13;;;9.48;87.50
49827;BME280;35715;51.570;6.036;2023-02-03T06:28:13;102323.03;;;9.49;87.42
49827;BME280;35715;51.570;6.036;2023-02-03T06:30:39;102318.94;;;9.51;87.37
49827;BME280;35715;51.570;6.036;2023-02-03T06:33:04;102319.53;;;9.49;87.51
49827;BME280;35715;51.570;6.036;2023-02-03T06:37:58;102303.31;;;9.50;87.46
49827;BME280;35715;51.570;6.036;2023-02-03T06:40:23;102308.03;;;9.45;87.55
49827;BME280;35715;51.570;6.036;2023-02-03T06:42:50;102305.75;;;9.48;87.46
49827;BME280;35715;51.570;6.036;2023-02-03T06:45:20;102299.06;;;9.50;87.40
49827;BME280;35715;51.570;6.036;2023-02-03T06:47:45;102316.34;;;9.51;87.52
49827;BME280;35715;51.570;6.036;2023-02-03T06:50:11;102306.34;;;9.54;87.73
49827;BME280;35715;51.570;6.036;2023-02-03T06:52:37;102307.88;;;9.52;87.44
49827;BME280;35715;51.570;6.036;2023-02-03T06:57:31;102310.44;;;9.52;87.57
49827;BME280;35715;51.570;6.036;2023-02-03T06:59:56;102315.75;;;9.54;87.32
49827;BME280;35715;51.570;6.036;2023-02-03T07:02:22;102319.38;;;9.56;87.28
49827;BME280;35715;51.570;6.036;2023-02-03T07:04:57;102317.41;;;9.53;87.54
49827;BME280;35715;51.570;6.036;2023-02-03T07:07:22;102323.47;;;9.54;87.60
49827;BME280;35715;51.570;6.036;2023-02-03T07:09:48;102330.13;;;9.52;87.43
49827;BME280;35715;51.570;6.036;2023-02-03T07:12:13;102350.88;;;9.53;87.61
49827;BME280;35715;51.570;6.036;2023-02-03T07:14:39;102342.41;;;9.54;87.72
49827;BME280;35715;51.570;6.036;2023-02-03T07:17:05;102326.81;;;9.53;87.62
49827;BME280;35715;51.570;6.036;2023-02-03T07:19:31;102324.53;;;9.56;87.60
49827;BME280;35715;51.570;6.036;2023-02-03T07:21:56;102339.09;;;9.55;87.72
49827;BME280;35715;51.570;6.036;2023-02-03T07:24:26;102342.69;;;9.57;87.72
49827;BME280;35715;51.570;6.036;2023-02-03T07:26:51;102345.00;;;9.54;87.87
49827;BME280;35715;51.570;6.036;2023-02-03T07:29:17;102334.53;;;9.53;88.09
49827;BME280;35715;51.570;6.036;2023-02-03T07:31:42;102332.09;;;9.54;88.02
49827;BME280;35715;51.570;6.036;2023-02-03T07:34:07;102326.06;;;9.54;88.18
49827;BME280;35715;51.570;6.036;2023-02-03T07:36:32;102319.38;;;9.56;88.15
49827;BME280;35715;51.570;6.036;2023-02-03T07:38:57;102328.00;;;9.56;88.24
49827;BME280;35715;51.570;6.036;2023-02-03T07:41:23;102329.06;;;9.58;88.00
49827;BME280;35715;51.570;6.036;2023-02-03T07:43:58;102331.22;;;9.54;88.11
49827;BME280;35715;51.570;6.036;2023-02-03T07:46:24;102339.97;;;9.56;88.37
49827;BME280;35715;51.570;6.036;2023-02-03T07:48:49;102352.72;;;9.54;88.39
49827;BME280;35715;51.570;6.036;2023-02-03T07:51:14;102354.53;;;9.55;88.50
49827;BME280;35715;51.570;6.036;2023-02-03T07:56:07;102347.09;;;9.58;88.58
49827;BME280;35715;51.570;6.036;2023-02-03T07:58:33;102351.78;;;9.63;88.38
49827;BME280;35715;51.570;6.036;2023-02-03T08:00:58;102359.34;;;9.61;88.63
49827;BME280;35715;51.570;6.036;2023-02-03T08:03:24;102351.78;;;9.63;88.49
49827;BME280;35715;51.570;6.036;2023-02-03T08:05:49;102365.44;;;9.62;88.67
49827;BME280;35715;51.570;6.036;2023-02-03T08:08:14;102348.91;;;9.59;88.48
49827;BME280;35715;51.570;6.036;2023-02-03T08:10:40;102360.44;;;9.63;88.84
49827;BME280;35715;51.570;6.036;2023-02-03T08:13:05;102363.75;;;9.62;89.04
49827;BME280;35715;51.570;6.036;2023-02-03T08:15:37;102362.50;;;9.67;88.95
49827;BME280;35715;51.570;6.036;2023-02-03T08:18:02;102362.38;;;9.66;89.09
49827;BME280;35715;51.570;6.036;2023-02-03T08:20:28;102358.28;;;9.68;88.98
49827;BME280;35715;51.570;6.036;2023-02-03T08:22:53;102356.47;;;9.67;88.96
49827;BME280;35715;51.570;6.036;2023-02-03T08:25:19;102360.56;;;9.65;89.19
49827;BME280;35715;51.570;6.036;2023-02-03T08:27:44;102370.09;;;9.66;89.24
49827;BME280;35715;51.570;6.036;2023-02-03T08:30:13;102356.31;;;9.65;89.38
49827;BME280;35715;51.570;6.036;2023-02-03T08:32:39;102380.56;;;9.67;89.55
49827;BME280;35715;51.570;6.036;2023-02-03T08:35:04;102383.44;;;9.70;89.44
49827;BME280;35715;51.570;6.036;2023-02-03T08:37:30;102387.69;;;9.70;89.44
49827;BME280;35715;51.570;6.036;2023-02-03T08:39:56;102390.56;;;9.73;89.36
49827;BME280;35715;51.570;6.036;2023-02-03T08:42:22;102378.75;;;9.66;89.74
49827;BME280;35715;51.570;6.036;2023-02-03T08:44:52;102392.09;;;9.71;89.67
49827;BME280;35715;51.570;6.036;2023-02-03T08:47:17;102396.94;;;9.68;89.86
49827;BME280;35715;51.570;6.036;2023-02-03T08:49:43;102396.31;;;9.70;89.90
49827;BME280;35715;51.570;6.036;2023-02-03T08:52:11;102402.69;;;9.74;90.31
49827;BME280;35715;51.570;6.036;2023-02-03T08:54:37;102390.69;;;9.74;90.21
49827;BME280;35715;51.570;6.036;2023-02-03T08:57:03;102396.00;;;9.76;90.16
49827;BME280;35715;51.570;6.036;2023-02-03T08:59:28;102390.56;;;9.73;90.05
49827;BME280;35715;51.570;6.036;2023-02-03T09:01:55;102396.31;;;9.70;90.15
49827;BME280;35715;51.570;6.036;2023-02-03T09:04:25;102400.25;;;9.75;90.38
49827;BME280;35715;51.570;6.036;2023-02-03T09:06:51;102399.66;;;9.78;90.14
49827;BME280;35715;51.570;6.036;2023-02-03T09:09:18;102398.41;;;9.83;90.23
49827;BME280;35715;51.570;6.036;2023-02-03T09:11:43;102396.59;;;9.82;90.38
49827;BME280;35715;51.570;6.036;2023-02-03T09:14:14;102392.97;;;9.80;90.35
49827;BME280;35715;51.570;6.036;2023-02-03T09:16:39;102395.38;;;9.87;90.04
49827;BME280;35715;51.570;6.036;2023-02-03T09:19:04;102403.56;;;9.83;90.37
49827;BME280;35715;51.570;6.036;2023-02-03T09:21:29;102412.06;;;9.82;90.66
49827;BME280;35715;51.570;6.036;2023-02-03T09:23:59;102417.34;;;9.84;90.73
49827;BME280;35715;51.570;6.036;2023-02-03T09:26:24;102419.19;;;9.85;90.45
49827;BME280;35715;51.570;6.036;2023-02-03T09:28:51;102424.50;;;9.86;90.37
49827;BME280;35715;51.570;6.036;2023-02-03T09:31:16;102427.22;;;9.88;90.80
49827;BME280;35715;51.570;6.036;2023-02-03T09:33:45;102431.63;;;9.89;90.57
49827;BME280;35715;51.570;6.036;2023-02-03T09:36:10;102427.78;;;9.94;90.54
49827;BME280;35715;51.570;6.036;2023-02-03T09:38:36;102433.69;;;9.93;90.55
49827;BME280;35715;51.570;6.036;2023-02-03T09:43:50;102421.09;;;9.96;90.68
49827;BME280;35715;51.570;6.036;2023-02-03T09:46:18;102431.41;;;9.96;90.81
49827;BME280;35715;51.570;6.036;2023-02-03T09:48:46;102420.63;;;10.00;90.83
49827;BME280;35715;51.570;6.036;2023-02-03T09:51:26;102417.47;;;10.03;90.48
49827;BME280;35715;51.570;6.036;2023-02-03T09:56:29;102415.47;;;10.09;90.37
49827;BME280;35715;51.570;6.036;2023-02-03T09:58:55;102415.59;;;10.10;90.65
49827;BME280;35715;51.570;6.036;2023-02-03T10:01:20;102410.59;;;10.12;90.70
49827;BME280;35715;51.570;6.036;2023-02-03T10:03:54;102411.47;;;10.12;90.58
49827;BME280;35715;51.570;6.036;2023-02-03T10:06:35;102397.38;;;10.18;90.54
49827;BME280;35715;51.570;6.036;2023-02-03T10:17:04;102415.50;;;10.37;89.81
49827;BME280;35715;51.570;6.036;2023-02-03T10:19:41;102422.34;;;10.36;89.92
49827;BME280;35715;51.570;6.036;2023-02-03T10:22:07;102420.94;;;10.40;89.87
49827;BME280;35715;51.570;6.036;2023-02-03T10:24:39;102441.88;;;10.43;89.83
49827;BME280;35715;51.570;6.036;2023-02-03T10:27:10;102429.91;;;10.43;89.24
49827;BME280;35715;51.570;6.036;2023-02-03T10:29:40;102430.34;;;10.48;89.45
49827;BME280;35715;51.570;6.036;2023-02-03T10:32:08;102436.09;;;10.45;89.38
49827;BME280;35715;51.570;6.036;2023-02-03T10:34:34;102423.97;;;10.44;89.40
49827;BME280;35715;51.570;6.036;2023-02-03T10:39:48;102421.94;;;10.51;89.32
49827;BME280;35715;51.570;6.036;2023-02-03T10:42:14;102428.31;;;10.54;89.36
49827;BME280;35715;51.570;6.036;2023-02-03T10:45:01;102426.97;;;10.49;88.83
49827;BME280;35715;51.570;6.036;2023-02-03T10:47:30;102422.75;;;10.50;89.42
49827;BME280;35715;51.570;6.036;2023-02-03T10:50:00;102415.75;;;10.48;89.41
49827;BME280;35715;51.570;6.036;2023-02-03T10:52:28;102415.59;;;10.47;89.11
49827;BME280;35715;51.570;6.036;2023-02-03T10:54:56;102428.94;;;10.52;89.06
49827;BME280;35715;51.570;6.036;2023-02-03T10:57:23;102420.59;;;10.54;89.15
49827;BME280;35715;51.570;6.036;2023-02-03T10:59:49;102434.81;;;10.59;88.92
49827;BME280;35715;51.570;6.036;2023-02-03T11:02:24;102429.38;;;10.56;88.99
49827;BME280;35715;51.570;6.036;2023-02-03T11:07:49;102442.97;;;10.64;89.10
49827;BME280;35715;51.570;6.036;2023-02-03T11:10:26;102436.31;;;10.66;89.14
49827;BME280;35715;51.570;6.036;2023-02-03T11:13:00;102446.50;;;10.64;89.13
49827;BME280;35715;51.570;6.036;2023-02-03T11:15:35;102444.53;;;10.62;89.05
49827;BME280;35715;51.570;6.036;2023-02-03T11:18:00;102447.38;;;10.65;89.16
49827;BME280;35715;51.570;6.036;2023-02-03T11:20:25;102434.75;;;10.68;89.09
49827;BME280;35715;51.570;6.036;2023-02-03T11:22:53;102440.97;;;10.70;88.89
49827;BME280;35715;51.570;6.036;2023-02-03T11:25:27;102452.97;;;10.70;88.93
49827;BME280;35715;51.570;6.036;2023-02-03T11:27:56;102439.31;;;10.71;88.96
49827;BME280;35715;51.570;6.036;2023-02-03T11:30:27;102445.38;;;10.71;88.93
49827;BME280;35715;51.570;6.036;2023-02-03T11:32:56;102452.50;;;10.74;88.82
49827;BME280;35715;51.570;6.036;2023-02-03T11:35:37;102437.91;;;10.74;88.49
49827;BME280;35715;51.570;6.036;2023-02-03T11:38:04;102447.97;;;10.71;88.99
49827;BME280;35715;51.570;6.036;2023-02-03T11:40:51;102442.31;;;10.75;89.20
49827;BME280;35715;51.570;6.036;2023-02-03T11:43:22;102449.66;;;10.71;88.87
49827;BME280;35715;51.570;6.036;2023-02-03T11:45:48;102453.06;;;10.80;89.03
49827;BME280;35715;51.570;6.036;2023-02-03T11:53:24;102427.53;;;10.83;88.92
49827;BME280;35715;51.570;6.036;2023-02-03T11:58:35;102436.13;;;10.92;88.85
49827;BME280;35715;51.570;6.036;2023-02-03T12:01:24;102434.56;;;10.94;88.75
49827;BME280;35715;51.570;6.036;2023-02-03T12:09:27;102456.66;;;10.91;88.75
49827;BME280;35715;51.570;6.036;2023-02-03T12:14:36;102436.31;;;10.85;88.89
49827;BME280;35715;51.570;6.036;2023-02-03T12:19:56;102437.38;;;10.87;88.56
49827;BME280;35715;51.570;6.036;2023-02-03T12:22:39;102433.25;;;10.89;88.71
49827;BME280;35715;51.570;6.036;2023-02-03T12:30:23;102457.47;;;11.00;88.03
49827;BME280;35715;51.570;6.036;2023-02-03T12:32:54;102455.94;;;11.02;87.86
49827;BME280;35715;51.570;6.036;2023-02-03T12:35:28;102454.91;;;11.00;88.20
49827;BME280;35715;51.570;6.036;2023-02-03T12:38:01;102471.81;;;10.96;88.13
49827;BME280;35715;51.570;6.036;2023-02-03T12:40:42;102475.75;;;10.93;88.04
49827;BME280;35715;51.570;6.036;2023-02-03T12:43:16;102479.88;;;10.91;88.26
49827;BME280;35715;51.570;6.036;2023-02-03T12:48:46;102483.03;;;10.97;88.38
49827;BME280;35715;51.570;6.036;2023-02-03T12:51:27;102475.00;;;10.94;88.50
49827;BME280;35715;51.570;6.036;2023-02-03T12:53:58;102475.00;;;10.94;88.67
49827;BME280;35715;51.570;6.036;2023-02-03T12:56:26;102472.13;;;10.91;88.79
49827;BME280;35715;51.570;6.036;2023-02-03T12:59:01;102469.28;;;10.88;88.77
49827;BME280;35715;51.570;6.036;2023-02-03T13:06:33;102459.66;;;10.95;89.06
49827;BME280;35715;51.570;6.036;2023-02-03T13:09:52;102469.84;;;10.94;89.16
49827;BME280;35715;51.570;6.036;2023-02-03T13:11:53;102481.84;;;10.93;88.85
49827;BME280;35715;51.570;6.036;2023-02-03T13:14:40;102480.44;;;10.97;88.98
49827;BME280;35715;51.570;6.036;2023-02-03T13:19:45;102482.84;;;11.04;88.85
49827;BME280;35715;51.570;6.036;2023-02-03T13:22:13;102478.91;;;10.99;88.93
49827;BME280;35715;51.570;6.036;2023-02-03T13:24:46;102475.56;;;11.00;89.01
49827;BME280;35715;51.570;6.036;2023-02-03T13:27:25;102475.00;;;10.94;88.82
49827;BME280;35715;51.570;6.036;2023-02-03T13:42:58;102474.63;;;11.08;91.11
49827;BME280;35715;51.570;6.036;2023-02-03T13:45:30;102485.13;;;11.01;91.84
49827;BME280;35715;51.570;6.036;2023-02-03T13:47:59;102483.66;;;10.94;92.69
49827;BME280;35715;51.570;6.036;2023-02-03T13:50:27;102479.28;;;10.93;94.02
49827;BME280;35715;51.570;6.036;2023-02-03T13:52:54;102484.28;;;10.92;94.96
49827;BME280;35715;51.570;6.036;2023-02-03T13:55:40;102482.66;;;10.83;95.17
49827;BME280;35715;51.570;6.036;2023-02-03T13:58:17;102483.72;;;10.86;94.99
49827;BME280;35715;51.570;6.036;2023-02-03T14:05:44;102501.00;;;10.87;95.45
49827;BME280;35715;51.570;6.036;2023-02-03T14:13:41;102497.25;;;10.83;95.46
49827;BME280;35715;51.570;6.036;2023-02-03T14:16:20;102498.44;;;10.87;95.17
49827;BME280;35715;51.570;6.036;2023-02-03T14:18:46;102512.50;;;10.71;94.05
49827;BME280;35715;51.570;6.036;2023-02-03T14:21:13;102530.09;;;10.30;93.34
49827;BME280;35715;51.570;6.036;2023-02-03T14:23:45;102520.47;;;10.01;95.14
49827;BME280;35715;51.570;6.036;2023-02-03T14:26:23;102520.31;;;9.82;96.56
49827;BME280;35715;51.570;6.036;2023-02-03T14:28:49;102520.19;;;9.72;95.87
49827;BME280;35715;51.570;6.036;2023-02-03T14:31:16;102521.41;;;9.75;95.52
49827;BME280;35715;51.570;6.036;2023-02-03T14:38:52;102518.97;;;9.77;93.54
49827;BME280;35715;51.570;6.036;2023-02-03T14:41:18;102537.47;;;9.82;93.78
49827;BME280;35715;51.570;6.036;2023-02-03T14:46:38;102544.47;;;9.83;94.81
49827;BME280;35715;51.570;6.036;2023-02-03T14:59:26;102572.47;;;9.88;95.15
49827;BME280;35715;51.570;6.036;2023-02-03T15:02:07;102569.75;;;9.95;95.46
49827;BME280;35715;51.570;6.036;2023-02-03T15:04:33;102573.22;;;9.96;95.10
49827;BME280;35715;51.570;6.036;2023-02-03T15:06:59;102565.19;;;10.02;95.16
49827;BME280;35715;51.570;6.036;2023-02-03T15:09:29;102569.47;;;10.01;95.25
49827;BME280;35715;51.570;6.036;2023-02-03T15:11:55;102568.53;;;10.09;94.96
49827;BME280;35715;51.570;6.036;2023-02-03T15:14:26;102559.72;;;10.16;94.50
49827;BME280;35715;51.570;6.036;2023-02-03T15:17:02;102560.47;;;10.15;94.35
49827;BME280;35715;51.570;6.036;2023-02-03T15:19:37;102558.19;;;10.18;93.94
49827;BME280;35715;51.570;6.036;2023-02-03T15:22:16;102557.44;;;10.28;93.94
49827;BME280;35715;51.570;6.036;2023-02-03T15:24:42;102562.28;;;10.34;93.77
49827;BME280;35715;51.570;6.036;2023-02-03T15:27:18;102568.53;;;10.36;93.61
49827;BME280;35715;51.570;6.036;2023-02-03T15:29:44;102566.97;;;10.29;92.83
49827;BME280;35715;51.570;6.036;2023-02-03T15:32:14;102571.69;;;10.33;92.52